createdAt,value
2022-11-29T00:02:11.970Z,4.40
2022-11-29T00:04:39.175Z,4.30
2022-11-29T00:07:06.064Z,4.40
2022-11-29T00:09:32.934Z,4.30
2022-11-29T00:12:14.432Z,4.40
2022-11-29T00:14:42.234Z,4.40
2022-11-29T00:17:08.981Z,4.50
2022-11-29T00:19:36.895Z,4.40
2022-11-29T00:22:04.594Z,4.40
2022-11-29T00:24:32.314Z,4.50
2022-11-29T00:26:58.887Z,4.40
2022-11-29T00:29:25.774Z,4.40
2022-11-29T00:31:52.301Z,4.40
2022-11-29T00:34:18.837Z,4.40
2022-11-29T00:36:45.773Z,4.40
2022-11-29T00:39:12.680Z,4.40
2022-11-29T00:41:39.565Z,4.40
2022-11-29T00:44:06.531Z,4.40
2022-11-29T00:46:33.028Z,4.40
2022-11-29T00:48:59.938Z,4.40
2022-11-29T00:51:26.416Z,4.40
2022-11-29T00:53:53.382Z,4.40
2022-11-29T00:56:20.286Z,4.30
2022-11-29T00:58:48.442Z,4.30
2022-11-29T01:01:15.426Z,4.40
2022-11-29T01:03:42.378Z,4.30
2022-11-29T01:06:12.916Z,4.40
2022-11-29T01:08:40.222Z,4.30
2022-11-29T01:11:08.814Z,4.30
2022-11-29T01:13:36.105Z,4.30
2022-11-29T01:16:03.529Z,4.30
2022-11-29T01:18:30.846Z,4.30
2022-11-29T01:21:01.568Z,4.30
2022-11-29T01:23:28.197Z,4.30
2022-11-29T01:25:58.997Z,4.30
2022-11-29T01:28:25.518Z,4.20
2022-11-29T01:30:52.160Z,4.30
2022-11-29T01:33:19.232Z,4.30
2022-11-29T01:35:52.709Z,4.30
2022-11-29T01:38:20.006Z,4.20
2022-11-29T01:40:56.834Z,4.20
2022-11-29T01:43:23.356Z,4.30
2022-11-29T01:45:50.666Z,4.20
2022-11-29T01:48:17.832Z,4.30
2022-11-29T01:50:44.800Z,4.10
2022-11-29T01:53:12.831Z,4.30
2022-11-29T01:55:41.709Z,4.20
2022-11-29T01:58:09.164Z,4.20
2022-11-29T02:00:36.442Z,4.10
2022-11-29T02:03:11.144Z,4.10
2022-11-29T02:05:39.334Z,4.00
2022-11-29T02:08:06.930Z,4.10
2022-11-29T02:10:44.254Z,4.00
2022-11-29T02:13:24.990Z,4.00
2022-11-29T02:15:56.666Z,4.00
2022-11-29T02:18:37.765Z,4.00
2022-11-29T02:21:07.291Z,4.10
2022-11-29T02:23:36.753Z,4.10
2022-11-29T02:26:03.646Z,4.10
2022-11-29T02:28:41.738Z,4.10
2022-11-29T02:31:08.729Z,4.10
2022-11-29T02:33:38.389Z,4.10
2022-11-29T02:36:11.970Z,4.00
2022-11-29T02:38:41.411Z,4.00
2022-11-29T02:41:18.001Z,4.00
2022-11-29T02:43:57.911Z,4.00
2022-11-29T02:46:41.758Z,4.00
2022-11-29T02:49:14.772Z,4.00
2022-11-29T02:51:52.522Z,4.00
2022-11-29T02:54:24.774Z,4.00
2022-11-29T02:56:57.425Z,4.00
2022-11-29T02:59:30.143Z,4.00
2022-11-29T03:02:15.920Z,4.00
2022-11-29T03:04:49.378Z,3.90
2022-11-29T03:07:34.856Z,3.90
2022-11-29T03:10:10.500Z,3.90
2022-11-29T03:12:41.921Z,3.90
2022-11-29T03:15:27.319Z,3.90
2022-11-29T03:17:54.249Z,3.90
2022-11-29T03:20:24.354Z,3.90
2022-11-29T03:23:00.398Z,3.90
2022-11-29T03:25:36.456Z,3.80
2022-11-29T03:28:06.195Z,3.80
2022-11-29T03:30:34.744Z,3.80
2022-11-29T03:33:07.652Z,3.80
2022-11-29T03:35:42.164Z,3.70
2022-11-29T03:38:44.448Z,3.70
2022-11-29T03:41:23.261Z,3.70
2022-11-29T03:44:02.175Z,3.70
2022-11-29T03:46:38.270Z,3.70
2022-11-29T03:49:11.802Z,3.60
2022-11-29T03:51:47.133Z,3.60
2022-11-29T03:54:17.582Z,3.60
2022-11-29T03:56:44.812Z,3.60
2022-11-29T03:59:17.780Z,3.70
2022-11-29T04:01:59.981Z,3.60
2022-11-29T04:04:45.425Z,3.60
2022-11-29T04:07:24.558Z,3.60
2022-11-29T04:09:57.143Z,3.60
2022-11-29T04:12:23.710Z,3.60
2022-11-29T04:15:17.787Z,3.60
2022-11-29T04:18:09.301Z,3.60
2022-11-29T04:20:48.024Z,3.60
2022-11-29T04:23:26.294Z,3.70
2022-11-29T04:26:11.754Z,3.70
2022-11-29T04:28:41.296Z,3.70
2022-11-29T04:31:07.795Z,3.70
2022-11-29T04:33:51.939Z,3.70
2022-11-29T04:36:36.477Z,3.70
2022-11-29T04:39:11.782Z,3.70
2022-11-29T04:41:59.966Z,3.80
2022-11-29T04:44:42.054Z,3.80
2022-11-29T04:47:27.874Z,3.80
2022-11-29T04:49:54.334Z,3.80
2022-11-29T04:52:32.449Z,3.80
2022-11-29T04:55:01.991Z,3.80
2022-11-29T04:57:43.344Z,3.80
2022-11-29T05:00:10.885Z,3.80
2022-11-29T05:02:37.794Z,3.80
2022-11-29T05:05:04.831Z,3.80
2022-11-29T05:07:41.431Z,3.80
2022-11-29T05:10:16.755Z,3.80
2022-11-29T05:12:48.300Z,3.80
2022-11-29T05:15:14.779Z,3.80
2022-11-29T05:18:00.548Z,3.70
2022-11-29T05:20:33.109Z,3.80
2022-11-29T05:23:11.522Z,3.80
2022-11-29T05:25:58.729Z,3.80
2022-11-29T05:28:43.930Z,3.80
2022-11-29T05:31:23.610Z,3.80
2022-11-29T05:34:10.209Z,3.80
2022-11-29T05:36:52.063Z,3.90
2022-11-29T05:39:41.196Z,3.90
2022-11-29T05:42:14.800Z,4.00
2022-11-29T05:45:01.520Z,4.00
2022-11-29T05:47:42.252Z,3.90
2022-11-29T05:50:13.621Z,3.90
2022-11-29T05:52:40.065Z,3.90
2022-11-29T05:55:26.163Z,3.90
2022-11-29T05:57:59.258Z,3.90
2022-11-29T06:00:33.155Z,4.00
2022-11-29T06:03:15.060Z,4.00
2022-11-29T06:05:47.788Z,4.00
2022-11-29T06:08:35.421Z,4.00
2022-11-29T06:11:25.394Z,4.00
2022-11-29T06:14:02.771Z,4.10
2022-11-29T06:16:41.217Z,4.10
2022-11-29T06:19:26.517Z,4.00
2022-11-29T06:22:11.444Z,4.10
2022-11-29T06:24:45.337Z,4.10
2022-11-29T06:27:22.540Z,4.10
2022-11-29T06:29:58.695Z,4.10
2022-11-29T06:32:31.551Z,4.10
2022-11-29T06:35:02.315Z,4.10
2022-11-29T06:37:32.090Z,4.10
2022-11-29T06:39:58.740Z,4.20
2022-11-29T06:42:25.603Z,4.10
2022-11-29T06:44:52.262Z,4.10
2022-11-29T06:47:23.244Z,4.10
2022-11-29T06:49:54.742Z,4.10
2022-11-29T06:52:40.792Z,4.10
2022-11-29T06:55:08.085Z,4.10
2022-11-29T06:57:44.238Z,4.10
2022-11-29T07:00:16.295Z,4.20
2022-11-29T07:02:57.457Z,4.10
2022-11-29T07:05:27.961Z,4.10
2022-11-29T07:07:56.919Z,4.10
2022-11-29T07:10:24.460Z,4.10
2022-11-29T07:12:51.337Z,4.10
2022-11-29T07:15:19.185Z,4.10
2022-11-29T07:17:49.077Z,4.10
2022-11-29T07:20:20.676Z,4.10
2022-11-29T07:23:00.100Z,4.10
2022-11-29T07:25:34.696Z,4.20
2022-11-29T07:28:01.933Z,4.10
2022-11-29T07:30:33.982Z,4.20
2022-11-29T07:33:09.870Z,4.20
2022-11-29T07:35:36.742Z,4.20
2022-11-29T07:38:03.316Z,4.20
2022-11-29T07:40:38.147Z,4.20
2022-11-29T07:43:19.419Z,4.20
2022-11-29T07:45:46.371Z,4.30
2022-11-29T07:48:13.399Z,4.20
2022-11-29T07:50:40.712Z,4.30
2022-11-29T07:53:07.233Z,4.30
2022-11-29T07:55:34.826Z,4.30
2022-11-29T07:58:01.290Z,4.30
2022-11-29T08:00:28.194Z,4.40
2022-11-29T08:02:54.887Z,4.40
2022-11-29T08:05:22.368Z,4.40
2022-11-29T08:07:49.238Z,4.50
2022-11-29T08:10:16.708Z,4.50
2022-11-29T08:12:44.186Z,4.50
2022-11-29T08:15:10.782Z,4.50
2022-11-29T08:17:38.458Z,4.60
2022-11-29T08:20:05.525Z,4.60
2022-11-29T08:22:32.433Z,4.60
2022-11-29T08:24:59.855Z,4.70
2022-11-29T08:27:26.366Z,4.70
2022-11-29T08:29:52.874Z,4.70
2022-11-29T08:32:19.368Z,4.60
2022-11-29T08:34:46.049Z,4.60
2022-11-29T08:37:13.180Z,4.70
2022-11-29T08:39:39.658Z,4.70
2022-11-29T08:42:06.524Z,4.70
2022-11-29T08:44:33.410Z,4.70
2022-11-29T08:47:18.738Z,4.70
2022-11-29T08:50:03.740Z,4.80
2022-11-29T08:52:50.423Z,4.80
2022-11-29T08:55:18.006Z,4.90
2022-11-29T08:57:44.503Z,4.80
2022-11-29T09:00:11.351Z,4.90
2022-11-29T09:02:38.319Z,4.90
2022-11-29T09:05:05.870Z,4.90
2022-11-29T09:07:32.609Z,4.90
2022-11-29T09:09:59.588Z,4.90
2022-11-29T09:12:26.044Z,4.80
2022-11-29T09:14:52.964Z,4.80
2022-11-29T09:17:19.448Z,4.70
2022-11-29T09:19:46.329Z,4.70
2022-11-29T09:22:12.901Z,4.70
2022-11-29T09:24:39.430Z,4.80
2022-11-29T09:27:06.722Z,4.80
2022-11-29T09:29:33.180Z,4.90
2022-11-29T09:32:00.150Z,4.80
2022-11-29T09:34:26.658Z,4.90
2022-11-29T09:36:53.131Z,5.00
2022-11-29T09:39:20.138Z,5.10
2022-11-29T09:41:53.005Z,5.50
2022-11-29T09:44:37.879Z,5.10
2022-11-29T09:47:23.539Z,5.10
2022-11-29T09:50:09.873Z,5.10
2022-11-29T09:53:01.252Z,5.10
2022-11-29T09:55:28.155Z,5.00
2022-11-29T09:57:56.508Z,5.00
2022-11-29T10:00:23.142Z,5.00
2022-11-29T10:02:54.436Z,5.10
2022-11-29T10:05:30.353Z,5.20
2022-11-29T10:08:08.485Z,5.20
2022-11-29T10:10:43.093Z,5.20
2022-11-29T10:13:18.773Z,5.20
2022-11-29T10:15:48.018Z,5.10
2022-11-29T10:18:28.608Z,5.00
2022-11-29T10:20:58.764Z,5.00
2022-11-29T10:23:35.010Z,5.00
2022-11-29T10:26:02.027Z,5.00
2022-11-29T10:28:33.420Z,5.00
2022-11-29T10:31:21.641Z,5.10
2022-11-29T10:33:49.325Z,5.30
2022-11-29T10:36:28.056Z,5.30
2022-11-29T10:38:59.060Z,5.20
2022-11-29T10:41:25.806Z,5.20
2022-11-29T10:43:55.035Z,5.20
2022-11-29T10:46:27.474Z,5.30
2022-11-29T10:48:54.449Z,5.50
2022-11-29T10:51:20.950Z,5.50
2022-11-29T10:53:48.300Z,5.50
2022-11-29T10:56:22.292Z,5.30
2022-11-29T10:59:12.254Z,5.20
2022-11-29T11:01:41.466Z,5.20
2022-11-29T11:04:14.107Z,5.30
2022-11-29T11:06:46.403Z,5.20
2022-11-29T11:09:39.390Z,5.30
2022-11-29T11:12:09.065Z,5.20
2022-11-29T11:14:37.491Z,5.20
2022-11-29T11:17:26.514Z,5.20
2022-11-29T11:19:57.645Z,5.20
2022-11-29T11:22:25.326Z,5.20
2022-11-29T11:25:03.969Z,5.20
2022-11-29T11:27:40.009Z,5.30
2022-11-29T11:30:07.572Z,5.30
2022-11-29T11:32:34.468Z,5.40
2022-11-29T11:35:01.861Z,5.30
2022-11-29T11:37:29.515Z,5.30
2022-11-29T11:39:59.718Z,5.30
2022-11-29T11:42:40.637Z,5.20
2022-11-29T11:45:21.988Z,5.30
2022-11-29T11:47:52.791Z,5.30
2022-11-29T11:50:25.158Z,5.20
2022-11-29T11:52:53.814Z,5.20
2022-11-29T11:55:39.552Z,5.20
2022-11-29T11:58:12.155Z,6.30
2022-11-29T12:01:02.833Z,5.10
2022-11-29T12:06:40.920Z,5.10
2022-11-29T12:09:19.172Z,5.00
2022-11-29T12:11:57.167Z,5.00
2022-11-29T12:14:34.551Z,5.10
2022-11-29T12:17:27.538Z,5.10
2022-11-29T12:20:04.661Z,5.00
2022-11-29T12:22:35.446Z,5.10
2022-11-29T12:25:05.197Z,5.10
2022-11-29T12:27:31.837Z,5.10
2022-11-29T12:29:59.078Z,5.10
2022-11-29T12:32:41.906Z,5.20
2022-11-29T12:35:08.768Z,5.20
2022-11-29T12:37:43.011Z,5.20
2022-11-29T12:40:12.477Z,5.20
2022-11-29T12:42:39.615Z,5.20
2022-11-29T12:45:21.704Z,5.30
2022-11-29T12:47:51.857Z,5.30
2022-11-29T12:50:19.070Z,5.30
2022-11-29T12:53:04.505Z,5.20
2022-11-29T12:55:44.704Z,5.10
2022-11-29T12:58:16.985Z,5.20
2022-11-29T13:00:50.149Z,5.20
2022-11-29T13:03:25.670Z,5.10
2022-11-29T13:05:58.915Z,5.10
2022-11-29T13:08:25.590Z,5.10
2022-11-29T13:10:58.002Z,5.10
2022-11-29T13:13:32.519Z,5.20
2022-11-29T13:16:22.977Z,5.20
2022-11-29T13:19:04.336Z,5.10
2022-11-29T13:21:40.774Z,5.10
2022-11-29T13:24:12.462Z,5.10
2022-11-29T13:26:42.259Z,5.10
2022-11-29T13:29:14.016Z,5.10
2022-11-29T13:31:41.236Z,5.10
2022-11-29T13:34:13.098Z,5.20
2022-11-29T13:36:50.675Z,5.20
2022-11-29T13:39:37.361Z,5.20
2022-11-29T13:42:09.914Z,5.20
2022-11-29T13:44:45.822Z,5.20
2022-11-29T13:47:13.658Z,5.20
2022-11-29T13:49:50.968Z,5.20
2022-11-29T13:52:36.262Z,5.20
2022-11-29T13:55:10.349Z,5.20
2022-11-29T13:58:14.420Z,5.20
2022-11-29T14:00:44.165Z,5.20
2022-11-29T14:03:21.640Z,5.20
2022-11-29T14:05:50.499Z,5.20
2022-11-29T14:08:25.037Z,5.30
2022-11-29T14:10:53.381Z,5.30
2022-11-29T14:13:21.948Z,5.30
2022-11-29T14:15:55.003Z,5.40
2022-11-29T14:18:36.760Z,5.40
2022-11-29T14:21:04.425Z,5.40
2022-11-29T14:23:31.385Z,5.30
2022-11-29T14:25:58.246Z,5.30
2022-11-29T14:28:24.722Z,5.30
2022-11-29T14:30:55.637Z,5.40
2022-11-29T14:33:39.145Z,5.30
2022-11-29T14:36:14.981Z,5.30
2022-11-29T14:38:48.262Z,5.30
2022-11-29T14:41:33.486Z,5.40
2022-11-29T14:44:13.971Z,5.40
2022-11-29T14:46:40.698Z,5.30
2022-11-29T14:49:15.460Z,5.30
2022-11-29T14:52:01.895Z,5.30
2022-11-29T14:54:28.502Z,5.30
2022-11-29T14:56:55.488Z,5.30
2022-11-29T14:59:40.887Z,5.30
2022-11-29T15:02:13.150Z,5.30
2022-11-29T15:04:40.216Z,5.30
2022-11-29T15:07:10.932Z,5.20
2022-11-29T15:09:38.131Z,5.20
2022-11-29T15:12:04.640Z,5.30
2022-11-29T15:14:31.546Z,5.30
2022-11-29T15:17:10.656Z,5.30
2022-11-29T15:19:53.050Z,5.30
2022-11-29T15:22:33.882Z,5.30
2022-11-29T15:25:02.402Z,5.30
2022-11-29T15:27:29.359Z,5.30
2022-11-29T15:29:55.855Z,5.30
2022-11-29T15:32:25.946Z,5.20
2022-11-29T15:34:54.552Z,5.20
2022-11-29T15:37:42.550Z,5.20
2022-11-29T15:40:12.154Z,5.30
2022-11-29T15:42:51.001Z,5.30
2022-11-29T15:45:22.631Z,5.20
2022-11-29T15:47:49.665Z,5.20
2022-11-29T15:50:25.482Z,5.20
2022-11-29T15:52:53.863Z,5.20
2022-11-29T15:55:20.552Z,5.30
2022-11-29T15:57:49.656Z,5.30
2022-11-29T16:00:19.789Z,5.30
2022-11-29T16:02:49.956Z,5.30
2022-11-29T16:05:20.279Z,5.30
2022-11-29T16:07:48.653Z,5.30
2022-11-29T16:10:20.663Z,5.30
2022-11-29T16:12:51.767Z,5.30
2022-11-29T16:15:26.901Z,5.30
2022-11-29T16:17:53.866Z,5.20
2022-11-29T16:20:25.347Z,5.20
2022-11-29T16:23:12.079Z,5.20
2022-11-29T16:25:58.097Z,5.20
2022-11-29T16:28:26.903Z,5.20
2022-11-29T16:30:53.419Z,5.20
2022-11-29T16:33:24.163Z,5.20
2022-11-29T16:35:51.302Z,5.20
2022-11-29T16:38:19.403Z,5.20
2022-11-29T16:41:00.543Z,5.20
2022-11-29T16:43:46.758Z,5.20
2022-11-29T16:46:22.307Z,5.20
2022-11-29T16:48:49.541Z,5.20
2022-11-29T16:51:24.248Z,5.20
2022-11-29T16:53:54.288Z,5.20
2022-11-29T16:56:22.706Z,5.20
2022-11-29T16:59:17.208Z,5.20
2022-11-29T17:01:42.321Z,5.20
2022-11-29T17:04:09.147Z,5.20
2022-11-29T17:06:36.140Z,5.20
2022-11-29T17:09:03.675Z,5.10
2022-11-29T17:11:30.194Z,5.20
2022-11-29T17:13:57.210Z,5.20
2022-11-29T17:16:24.072Z,5.20
2022-11-29T17:18:52.616Z,5.20
2022-11-29T17:21:26.649Z,5.20
2022-11-29T17:23:53.450Z,5.20
2022-11-29T17:26:20.844Z,5.20
2022-11-29T17:28:48.125Z,5.20
2022-11-29T17:31:16.408Z,5.20
2022-11-29T17:33:43.019Z,5.20
2022-11-29T17:36:11.119Z,5.20
2022-11-29T17:38:37.626Z,5.30
2022-11-29T17:41:08.248Z,5.30
2022-11-29T17:43:35.609Z,5.30
2022-11-29T17:46:15.580Z,5.30
2022-11-29T17:48:42.783Z,5.30
2022-11-29T17:51:22.864Z,5.30
2022-11-29T17:53:56.658Z,5.30
2022-11-29T17:56:24.596Z,5.30
2022-11-29T17:58:54.860Z,5.30
2022-11-29T18:01:22.857Z,5.30
2022-11-29T18:03:52.160Z,5.30
2022-11-29T18:06:20.347Z,5.30
2022-11-29T18:08:51.114Z,5.30
2022-11-29T18:11:18.749Z,5.40
2022-11-29T18:13:45.830Z,5.30
2022-11-29T18:16:13.818Z,5.30
2022-11-29T18:18:41.408Z,5.30
2022-11-29T18:21:08.885Z,5.30
2022-11-29T18:23:36.836Z,5.30
2022-11-29T18:26:04.619Z,5.20
2022-11-29T18:28:34.042Z,5.20
2022-11-29T18:31:05.927Z,5.20
2022-11-29T18:33:32.435Z,5.20
2022-11-29T18:36:06.620Z,5.20
2022-11-29T18:38:33.559Z,5.20
2022-11-29T18:41:06.261Z,5.20
2022-11-29T18:43:33.150Z,5.20
2022-11-29T18:46:05.389Z,5.20
2022-11-29T18:48:32.270Z,5.20
2022-11-29T18:51:06.409Z,5.20
2022-11-29T18:53:36.299Z,5.10
2022-11-29T18:56:07.837Z,5.00
2022-11-29T18:58:34.311Z,5.00
2022-11-29T19:01:05.246Z,5.00
2022-11-29T19:03:42.839Z,5.00
2022-11-29T19:06:10.807Z,5.00
2022-11-29T19:08:37.805Z,5.00
2022-11-29T19:11:08.709Z,5.00
2022-11-29T19:13:35.536Z,5.00
2022-11-29T19:16:02.659Z,5.00
2022-11-29T19:18:29.672Z,5.00
2022-11-29T19:21:06.118Z,5.00
2022-11-29T19:26:21.423Z,5.00
2022-11-29T19:28:48.329Z,4.90
2022-11-29T19:31:15.700Z,5.00
2022-11-29T19:33:45.046Z,5.00
2022-11-29T19:36:13.278Z,5.00
2022-11-29T19:38:40.523Z,5.00
2022-11-29T19:41:08.884Z,5.00
2022-11-29T19:43:35.658Z,5.00
2022-11-29T19:46:13.022Z,5.00
2022-11-29T19:48:40.574Z,5.00
2022-11-29T19:51:07.912Z,5.00
2022-11-29T19:53:34.874Z,5.00
2022-11-29T19:56:09.063Z,5.00
2022-11-29T19:58:36.016Z,5.00
2022-11-29T20:01:10.281Z,5.00
2022-11-29T20:03:36.865Z,5.10
2022-11-29T20:06:03.543Z,5.00
2022-11-29T20:11:19.061Z,5.10
2022-11-29T20:13:47.973Z,5.10
2022-11-29T20:16:15.905Z,5.00
2022-11-29T20:18:48.746Z,5.00
2022-11-29T20:21:19.355Z,5.00
2022-11-29T20:23:45.841Z,5.00
2022-11-29T20:26:14.156Z,4.90
2022-11-29T20:28:41.343Z,4.90
2022-11-29T20:31:09.124Z,5.00
2022-11-29T20:33:36.132Z,5.00
2022-11-29T20:36:17.477Z,5.00
2022-11-29T20:38:49.642Z,4.90
2022-11-29T20:41:33.004Z,4.90
2022-11-29T20:44:01.857Z,5.00
2022-11-29T20:46:29.869Z,5.00
2022-11-29T20:48:59.414Z,5.00
2022-11-29T20:51:34.332Z,5.00
2022-11-29T20:54:00.852Z,4.90
2022-11-29T20:56:27.322Z,4.90
2022-11-29T20:58:56.214Z,4.90
2022-11-29T21:01:23.221Z,4.90
2022-11-29T21:03:50.182Z,4.90
2022-11-29T21:06:17.093Z,4.90
2022-11-29T21:08:43.569Z,4.80
2022-11-29T21:11:10.820Z,4.90
2022-11-29T21:13:37.925Z,4.90
2022-11-29T21:16:05.027Z,4.90
2022-11-29T21:18:32.649Z,4.90
2022-11-29T21:21:02.725Z,5.40
2022-11-29T21:23:38.556Z,4.90
2022-11-29T21:26:10.033Z,4.90
2022-11-29T21:28:39.535Z,4.90
2022-11-29T21:31:06.652Z,4.90
2022-11-29T21:33:33.711Z,5.00
2022-11-29T21:36:01.521Z,5.00
2022-11-29T21:38:28.751Z,4.90
2022-11-29T21:40:55.644Z,5.00
2022-11-29T21:43:32.727Z,4.90
2022-11-29T21:46:09.519Z,4.90
2022-11-29T21:48:36.114Z,4.90
2022-11-29T21:51:03.512Z,4.90
2022-11-29T21:53:29.987Z,4.90
2022-11-29T21:56:00.822Z,4.90
2022-11-29T21:58:28.551Z,4.90
2022-11-29T22:00:55.444Z,4.90
2022-11-29T22:03:21.915Z,4.80
2022-11-29T22:05:48.415Z,4.80
2022-11-29T22:08:15.308Z,4.90
2022-11-29T22:10:42.259Z,4.80
2022-11-29T22:13:08.733Z,4.80
2022-11-29T22:15:35.682Z,4.80
2022-11-29T22:18:02.147Z,4.80
2022-11-29T22:20:28.660Z,4.80
2022-11-29T22:22:58.649Z,4.80
2022-11-29T22:25:25.885Z,4.80
2022-11-29T22:27:52.777Z,4.80
2022-11-29T22:30:19.657Z,4.80
2022-11-29T22:32:46.133Z,4.80
2022-11-29T22:35:13.129Z,4.80
2022-11-29T22:37:39.630Z,4.90
2022-11-29T22:40:06.870Z,4.90
2022-11-29T22:42:33.800Z,4.80
2022-11-29T22:45:02.431Z,4.80
2022-11-29T22:47:28.971Z,4.80
2022-11-29T22:49:55.520Z,4.80
2022-11-29T22:52:22.391Z,4.80
2022-11-29T22:54:49.145Z,4.80
2022-11-29T22:57:16.341Z,4.80
2022-11-29T22:59:42.808Z,4.80
2022-11-29T23:02:09.796Z,4.80
2022-11-29T23:04:36.399Z,4.80
2022-11-29T23:07:02.932Z,4.80
2022-11-29T23:09:29.802Z,4.80
2022-11-29T23:11:56.718Z,4.80
2022-11-29T23:14:24.401Z,4.80
2022-11-29T23:16:51.351Z,4.80
2022-11-29T23:19:17.979Z,4.30
2022-11-29T23:21:46.029Z,4.70
2022-11-29T23:24:13.205Z,4.70
2022-11-29T23:26:41.446Z,4.70
2022-11-29T23:29:12.506Z,4.70
2022-11-29T23:31:39.861Z,4.70
2022-11-29T23:34:06.432Z,4.60
2022-11-29T23:36:32.964Z,4.70
2022-11-29T23:38:59.885Z,4.70
2022-11-29T23:41:26.891Z,4.70
2022-11-29T23:43:53.365Z,4.70
2022-11-29T23:46:21.489Z,4.70
2022-11-29T23:48:48.666Z,4.70
2022-11-29T23:51:15.488Z,4.70
2022-11-29T23:53:42.601Z,4.70
2022-11-29T23:56:13.578Z,4.70
2022-11-29T23:58:40.628Z,4.70
